Time;durP1;ratioP1;P1;durP2;ratioP2;P2;SDS_P1;SDS_P2;PMS_P1;PMS_P2;Temp;Humidity;BMP_temperature;BMP_pressure;BME280_temperature;BME280_humidity;BME280_pressure;Samples;Min_cycle;Max_cycle;Signal;HPM_P1;HPM_P2
2021/07/29 00:01:36;;;;;;;6.40;4.80;;;17.40;48.70;;;;;;5009573;28;20431;-71
2021/07/29 00:04:02;;;;;;;6.20;4.70;;;17.30;49.80;;;;;;5010395;28;20869;-72
2021/07/29 00:06:27;;;;;;;10.70;5.57;;;17.30;49.60;;;;;;5009754;28;20430;-71
2021/07/29 00:08:53;;;;;;;6.25;4.90;;;17.30;48.90;;;;;;5009206;28;20409;-71
2021/07/29 00:11:19;;;;;;;9.13;5.30;;;17.30;49.30;;;;;;4988405;28;20402;-71
2021/07/29 00:13:45;;;;;;;7.45;5.30;;;17.40;50.90;;;;;;4997152;28;20424;-72
2021/07/29 00:16:11;;;;;;;8.23;5.57;;;17.40;49.80;;;;;;5010052;28;20412;-72
2021/07/29 00:21:21;;;;;;;8.10;4.75;;;17.40;49.70;;;;;;5008961;28;20415;-71
2021/07/29 00:23:48;;;;;;;8.63;5.10;;;17.40;50.60;;;;;;5009387;28;20385;-72
2021/07/29 00:26:14;;;;;;;9.30;5.40;;;17.30;51.00;;;;;;5009268;28;20749;-71
2021/07/29 00:28:39;;;;;;;7.83;5.40;;;17.40;51.00;;;;;;5007735;28;20385;-71
2021/07/29 00:31:05;;;;;;;5.80;5.23;;;17.30;51.40;;;;;;5010017;28;20889;-72
2021/07/29 00:33:30;;;;;;;11.52;5.70;;;17.20;51.50;;;;;;5009520;28;20480;-71
2021/07/29 00:35:56;;;;;;;5.30;4.78;;;17.20;52.20;;;;;;5009712;28;20385;-71
2021/07/29 00:38:22;;;;;;;6.67;5.47;;;17.20;53.60;;;;;;5009247;28;20393;-71
2021/07/29 00:40:49;;;;;;;8.73;5.50;;;17.10;54.10;;;;;;5009081;28;20447;-71
2021/07/29 00:43:16;;;;;;;8.93;5.10;;;17.10;53.20;;;;;;5009517;28;20388;-71
2021/07/29 00:45:43;;;;;;;6.38;5.30;;;17.20;52.80;;;;;;5008747;28;20928;-71
2021/07/29 00:48:10;;;;;;;6.80;5.15;;;17.30;52.30;;;;;;5008557;28;20400;-71
2021/07/29 00:50:36;;;;;;;8.65;4.82;;;17.30;52.30;;;;;;5010029;28;20376;-71
2021/07/29 00:53:04;;;;;;;5.30;4.80;;;17.30;52.20;;;;;;5010095;28;20381;-71
2021/07/29 00:55:29;;;;;;;6.95;5.07;;;17.40;51.60;;;;;;5009871;28;20849;-71
2021/07/29 00:57:55;;;;;;;8.55;5.25;;;17.30;51.00;;;;;;5009058;28;20401;-71
2021/07/29 01:00:20;;;;;;;8.13;4.90;;;17.30;51.20;;;;;;5010853;28;20818;-71
2021/07/29 01:02:46;;;;;;;7.83;5.10;;;17.30;52.50;;;;;;5012400;28;20404;-71
2021/07/29 01:05:11;;;;;;;8.00;5.30;;;17.10;54.10;;;;;;5013000;28;20524;-71
2021/07/29 01:07:37;;;;;;;7.78;4.75;;;17.10;55.30;;;;;;5012874;28;20930;-71
2021/07/29 01:10:03;;;;;;;8.30;5.07;;;17.10;55.50;;;;;;5007789;28;20394;-71
2021/07/29 01:12:29;;;;;;;8.55;5.10;;;17.00;54.40;;;;;;4993479;28;20449;-71
2021/07/29 01:14:54;;;;;;;6.60;5.35;;;17.00;53.60;;;;;;4993033;28;20394;-71
2021/07/29 01:17:20;;;;;;;6.60;4.63;;;17.00;55.00;;;;;;4993529;28;20402;-71
2021/07/29 01:19:45;;;;;;;10.00;5.10;;;17.00;55.50;;;;;;4993776;28;20441;-70
2021/07/29 01:22:11;;;;;;;8.52;4.60;;;16.90;54.90;;;;;;4994331;28;20831;-70
2021/07/29 01:24:36;;;;;;;7.03;4.97;;;16.90;54.80;;;;;;4992967;28;20422;-71
2021/07/29 01:27:02;;;;;;;6.70;4.43;;;16.80;54.90;;;;;;4993092;28;20744;-71
2021/07/29 01:29:28;;;;;;;9.50;4.80;;;16.90;53.10;;;;;;4993264;28;20807;-72
2021/07/29 01:31:53;;;;;;;7.70;4.90;;;16.90;51.40;;;;;;4992817;28;20818;-71
2021/07/29 01:34:19;;;;;;;8.52;4.60;;;16.80;53.10;;;;;;4992876;28;20795;-72
2021/07/29 01:36:45;;;;;;;6.67;4.57;;;16.70;54.30;;;;;;4992288;28;20383;-71
2021/07/29 01:39:11;;;;;;;6.68;4.47;;;16.70;54.30;;;;;;4993414;28;20717;-71
2021/07/29 01:41:36;;;;;;;8.38;4.40;;;16.70;54.90;;;;;;4992309;28;20420;-71
2021/07/29 01:44:02;;;;;;;5.50;4.50;;;16.50;55.50;;;;;;4992582;28;20394;-71
2021/07/29 01:46:28;;;;;;;11.90;4.50;;;16.50;54.90;;;;;;4992788;28;20383;-71
2021/07/29 01:48:53;;;;;;;7.63;4.87;;;16.50;55.10;;;;;;4992014;28;20736;-71
2021/07/29 01:51:19;;;;;;;8.40;4.30;;;16.50;55.40;;;;;;4992049;28;20430;-71
2021/07/29 01:53:44;;;;;;;7.00;4.40;;;16.50;56.20;;;;;;4992543;28;20748;-71
2021/07/29 01:56:10;;;;;;;10.40;5.07;;;16.50;58.10;;;;;;4992814;28;20398;-71
2021/07/29 01:58:36;;;;;;;11.57;5.45;;;16.50;57.70;;;;;;5001790;28;20396;-71
2021/07/29 02:01:02;;;;;;;6.55;4.20;;;16.40;56.30;;;;;;5011723;28;20404;-71
2021/07/29 02:03:27;;;;;;;8.10;4.32;;;16.40;55.80;;;;;;5011759;28;20377;-71
2021/07/29 02:05:53;;;;;;;5.97;3.95;;;16.40;54.30;;;;;;5012357;28;20392;-71
2021/07/29 02:08:18;;;;;;;7.20;4.33;;;16.30;55.50;;;;;;5011957;28;20958;-70
2021/07/29 02:10:44;;;;;;;8.57;4.67;;;16.30;55.20;;;;;;5000381;28;20891;-71
2021/07/29 02:13:09;;;;;;;7.57;4.65;;;16.30;56.60;;;;;;4992006;28;20529;-71
2021/07/29 02:15:35;;;;;;;11.18;5.10;;;16.20;58.10;;;;;;4991791;28;20414;-71
2021/07/29 02:18:02;;;;;;;8.70;5.10;;;16.20;59.50;;;;;;4991961;28;20414;-71
2021/07/29 02:20:27;;;;;;;6.65;4.60;;;16.20;57.30;;;;;;4991459;28;20399;-71
2021/07/29 02:22:53;;;;;;;6.82;4.50;;;16.30;56.50;;;;;;4992319;28;20560;-71
2021/07/29 02:25:19;;;;;;;6.63;4.93;;;16.30;55.60;;;;;;4991821;28;20395;-71
2021/07/29 02:27:45;;;;;;;8.07;4.28;;;16.20;56.50;;;;;;4990931;28;20394;-71
2021/07/29 02:30:11;;;;;;;8.93;4.70;;;16.30;56.70;;;;;;4992366;28;20422;-71
2021/07/29 02:32:37;;;;;;;9.38;5.60;;;16.20;56.40;;;;;;4991853;28;20395;-71
2021/07/29 02:35:04;;;;;;;7.28;4.68;;;16.10;57.60;;;;;;4992257;28;20394;-71
2021/07/29 02:37:29;;;;;;;10.68;4.80;;;16.20;57.10;;;;;;4991369;28;20390;-71
2021/07/29 02:39:55;;;;;;;9.70;4.55;;;16.20;56.10;;;;;;4992619;28;20394;-71
2021/07/29 02:42:20;;;;;;;9.40;4.40;;;16.20;55.60;;;;;;4991459;28;20418;-71
2021/07/29 02:44:46;;;;;;;7.30;4.63;;;16.20;55.70;;;;;;4991560;28;20540;-71
2021/07/29 02:47:11;;;;;;;9.02;4.70;;;16.00;56.40;;;;;;4992260;28;20394;-72
2021/07/29 02:49:37;;;;;;;7.27;4.30;;;16.10;56.90;;;;;;4991342;28;20497;-72
2021/07/29 02:52:03;;;;;;;6.80;5.00;;;16.00;57.10;;;;;;4990323;28;20582;-71
2021/07/29 02:54:29;;;;;;;14.13;4.60;;;15.90;58.80;;;;;;4991214;28;20464;-73
2021/07/29 02:56:54;;;;;;;5.68;4.38;;;15.80;58.90;;;;;;4991413;28;20466;-72
2021/07/29 02:59:20;;;;;;;10.00;4.93;;;15.80;60.00;;;;;;5006513;28;20762;-72
2021/07/29 03:01:47;;;;;;;9.48;4.78;;;15.70;60.00;;;;;;5010580;28;20408;-71
2021/07/29 03:04:13;;;;;;;7.85;4.85;;;15.70;60.40;;;;;;5011215;28;20738;-72
2021/07/29 03:06:38;;;;;;;14.63;5.10;;;15.80;59.50;;;;;;5010888;28;20397;-69
2021/07/29 03:09:04;;;;;;;8.20;4.93;;;15.80;59.20;;;;;;5010260;28;20906;-71
2021/07/29 03:11:29;;;;;;;11.30;4.70;;;15.80;57.70;;;;;;4992851;28;20893;-71
2021/07/29 03:13:55;;;;;;;8.77;5.00;;;15.90;57.30;;;;;;4990280;28;20429;-69
2021/07/29 03:16:21;;;;;;;8.00;5.20;;;15.90;55.80;;;;;;4990991;28;20383;-71
2021/07/29 03:18:46;;;;;;;10.60;4.72;;;16.00;56.20;;;;;;4990007;28;20401;-71
2021/07/29 03:21:12;;;;;;;10.73;5.10;;;16.00;54.80;;;;;;4973194;28;20394;-70
2021/07/29 03:23:38;;;;;;;14.60;5.50;;;16.10;55.00;;;;;;4990640;28;20494;-70
2021/07/29 03:26:04;;;;;;;11.43;5.10;;;16.10;54.30;;;;;;4990610;28;20795;-70
2021/07/29 03:28:30;;;;;;;16.85;5.85;;;16.20;55.80;;;;;;4990289;28;20390;-70
2021/07/29 03:30:56;;;;;;;8.20;5.47;;;16.20;53.20;;;;;;4991361;28;20449;-71
2021/07/29 03:33:21;;;;;;;12.23;5.63;;;16.30;52.80;;;;;;4990454;28;20478;-73
2021/07/29 03:35:48;;;;;;;12.40;5.28;;;16.40;52.30;;;;;;4973705;28;20747;-71
2021/07/29 03:38:13;;;;;;;11.20;5.20;;;16.40;52.40;;;;;;4990386;28;20395;-71
2021/07/29 03:40:39;;;;;;;11.67;5.50;;;16.40;51.40;;;;;;4991004;28;20474;-71
2021/07/29 03:43:07;;;;;;;9.53;4.90;;;16.50;51.90;;;;;;4989733;28;20418;-70
2021/07/29 03:45:34;;;;;;;7.53;4.80;;;16.50;51.90;;;;;;4989785;28;20792;-69
2021/07/29 03:48:00;;;;;;;12.57;5.37;;;16.60;52.10;;;;;;4990519;28;20473;-70
2021/07/29 03:50:26;;;;;;;7.70;4.90;;;16.60;51.30;;;;;;4990440;28;20429;-70
2021/07/29 03:52:52;;;;;;;9.93;5.50;;;16.60;50.20;;;;;;4990597;28;20723;-71
2021/07/29 03:55:18;;;;;;;10.30;4.82;;;16.80;50.10;;;;;;4990091;28;20870;-71
2021/07/29 03:57:44;;;;;;;7.07;4.60;;;16.80;49.30;;;;;;4974873;28;20434;-70
2021/07/29 04:00:10;;;;;;;10.32;4.57;;;16.70;50.10;;;;;;5009291;28;20385;-71
2021/07/29 04:02:36;;;;;;;8.23;5.10;;;16.70;49.20;;;;;;5010106;28;20405;-71
2021/07/29 04:05:03;;;;;;;6.40;4.32;;;16.70;47.90;;;;;;5011267;28;20384;-72
2021/07/29 04:07:29;;;;;;;8.57;4.28;;;16.80;48.40;;;;;;5010303;28;20439;-71
2021/07/29 04:09:54;;;;;;;8.45;4.25;;;16.80;48.40;;;;;;5005165;28;20394;-71
2021/07/29 04:12:20;;;;;;;11.02;4.18;;;16.90;47.20;;;;;;4990438;28;20394;-71
2021/07/29 04:14:46;;;;;;;11.55;4.10;;;16.90;46.40;;;;;;4990246;28;20398;-72
2021/07/29 04:17:12;;;;;;;7.93;4.20;;;17.00;45.30;;;;;;4989862;28;20823;-72
2021/07/29 04:19:37;;;;;;;9.55;4.30;;;17.00;45.90;;;;;;4990169;28;20470;-72
2021/07/29 04:22:07;;;;;;;18.73;4.70;;;16.90;44.90;;;;;;4989766;28;20456;-71
2021/07/29 04:24:33;;;;;;;15.77;4.22;;;16.90;45.00;;;;;;4989735;28;20434;-71
2021/07/29 04:27:00;;;;;;;13.50;4.40;;;16.90;44.60;;;;;;4989035;28;20879;-71
2021/07/29 04:29:26;;;;;;;12.35;4.88;;;16.90;43.40;;;;;;4989558;28;20429;-71
2021/07/29 04:31:53;;;;;;;13.95;4.60;;;16.80;44.50;;;;;;4989421;28;20390;-71
2021/07/29 04:34:19;;;;;;;9.80;4.30;;;16.90;43.50;;;;;;4988835;28;20437;-71
2021/07/29 04:36:45;;;;;;;11.00;4.60;;;16.90;42.20;;;;;;4989921;28;20398;-72
2021/07/29 04:39:11;;;;;;;12.30;4.88;;;17.00;42.50;;;;;;4989456;28;20398;-71
2021/07/29 04:41:41;;;;;;;10.52;4.90;;;17.00;43.00;;;;;;4989590;28;20501;-71
2021/07/29 04:44:08;;;;;;;9.80;4.10;;;17.10;42.20;;;;;;4989507;28;20449;-72
2021/07/29 04:46:38;;;;;;;16.77;5.03;;;17.10;41.70;;;;;;4989633;28;20452;-71
2021/07/29 04:49:04;;;;;;;9.80;4.13;;;17.20;41.50;;;;;;4989122;28;20794;-71
2021/07/29 04:51:32;;;;;;;9.57;4.07;;;17.30;41.10;;;;;;4989230;28;20723;-71
2021/07/29 04:53:57;;;;;;;12.10;3.90;;;17.40;40.30;;;;;;4989127;28;20477;-71
2021/07/29 04:56:23;;;;;;;10.30;3.80;;;17.30;41.40;;;;;;4988838;28;20688;-71
2021/07/29 04:58:49;;;;;;;8.00;4.10;;;17.40;40.80;;;;;;5000267;28;20447;-71
2021/07/29 05:01:16;;;;;;;13.13;4.10;;;17.30;40.90;;;;;;5008861;28;20413;-71
2021/07/29 05:03:41;;;;;;;8.73;4.13;;;17.30;40.50;;;;;;4991348;28;20732;-71
2021/07/29 05:06:07;;;;;;;12.20;4.37;;;17.40;39.50;;;;;;5008617;28;20392;-72
2021/07/29 05:08:33;;;;;;;8.43;3.70;;;17.50;39.00;;;;;;5007769;28;20500;-72
2021/07/29 05:11:04;;;;;;;10.03;4.00;;;17.50;38.70;;;;;;4996421;28;20410;-72
2021/07/29 05:13:31;;;;;;;11.57;4.25;;;17.50;38.80;;;;;;4989670;28;20437;-72
2021/07/29 05:15:56;;;;;;;8.70;3.90;;;17.50;38.20;;;;;;4989141;28;20382;-72
2021/07/29 05:18:22;;;;;;;9.37;3.97;;;17.50;38.50;;;;;;4989054;28;20378;-72
2021/07/29 05:20:47;;;;;;;8.70;4.10;;;17.50;38.80;;;;;;4989757;28;20382;-72
2021/07/29 05:23:14;;;;;;;9.38;3.97;;;17.60;37.30;;;;;;4989158;28;20446;-71
2021/07/29 05:25:40;;;;;;;11.50;4.13;;;17.60;37.50;;;;;;4988203;28;20448;-71
2021/07/29 05:28:05;;;;;;;15.48;4.05;;;17.60;37.80;;;;;;4988605;28;20386;-72
2021/07/29 05:30:31;;;;;;;17.17;4.20;;;17.60;38.00;;;;;;4989036;28;20390;-71
2021/07/29 05:32:58;;;;;;;10.20;4.40;;;17.50;38.00;;;;;;4989194;28;20453;-71
2021/07/29 05:35:24;;;;;;;8.48;3.60;;;17.50;38.10;;;;;;4988901;28;20918;-71
2021/07/29 05:37:49;;;;;;;10.30;4.00;;;17.40;37.60;;;;;;4988783;28;20503;-71
2021/07/29 05:40:15;;;;;;;9.80;4.33;;;17.40;37.90;;;;;;4988802;28;20493;-71
2021/07/29 05:42:40;;;;;;;11.13;4.15;;;17.40;37.80;;;;;;4988755;28;20528;-72
2021/07/29 05:45:06;;;;;;;21.05;9.38;;;17.50;37.90;;;;;;4988836;28;20492;-73
2021/07/29 05:47:32;;;;;;;10.43;4.25;;;17.50;38.50;;;;;;4990564;28;20795;-71
2021/07/29 05:49:57;;;;;;;14.93;5.50;;;17.50;38.10;;;;;;4991846;28;20497;-71
2021/07/29 05:52:23;;;;;;;8.50;3.90;;;17.70;38.50;;;;;;4991022;28;20394;-72
2021/07/29 05:54:48;;;;;;;10.02;4.60;;;17.90;36.70;;;;;;4992991;28;20409;-73
2021/07/29 05:57:14;;;;;;;9.93;3.80;;;17.90;36.80;;;;;;4993488;28;20747;-73
2021/07/29 05:59:39;;;;;;;6.43;3.80;;;17.90;36.50;;;;;;5008785;28;20917;-72
2021/07/29 06:02:05;;;;;;;11.23;3.70;;;18.00;35.90;;;;;;5011599;28;20888;-73
2021/07/29 06:04:31;;;;;;;5.25;3.17;;;18.10;35.90;;;;;;5011970;28;20385;-72
2021/07/29 06:06:56;;;;;;;12.68;3.60;;;18.20;35.20;;;;;;5011861;28;20404;-72
2021/07/29 06:09:22;;;;;;;8.70;3.70;;;18.30;35.20;;;;;;5010913;28;20405;-72
2021/07/29 06:11:48;;;;;;;8.30;3.37;;;18.40;34.50;;;;;;5011861;28;20443;-72
2021/07/29 06:14:13;;;;;;;13.88;4.20;;;18.50;34.50;;;;;;5011123;28;20399;-72
2021/07/29 06:16:39;;;;;;;12.80;3.90;;;18.40;33.80;;;;;;5012248;28;20389;-72
2021/07/29 06:19:06;;;;;;;9.48;3.65;;;18.40;33.80;;;;;;5011093;28;20397;-72
2021/07/29 06:21:33;;;;;;;12.05;3.45;;;18.30;33.90;;;;;;5011974;28;20401;-72
2021/07/29 06:23:58;;;;;;;11.80;3.50;;;18.20;34.60;;;;;;5011246;28;20385;-72
2021/07/29 06:26:24;;;;;;;11.57;3.45;;;18.20;34.90;;;;;;5010239;28;20762;-72
2021/07/29 06:28:50;;;;;;;10.27;3.97;;;18.20;34.80;;;;;;5010592;28;20392;-72
2021/07/29 06:31:16;;;;;;;11.30;3.70;;;18.30;35.20;;;;;;5011649;28;20389;-73
2021/07/29 06:33:41;;;;;;;7.70;3.50;;;18.40;34.20;;;;;;5026664;28;20393;-72
2021/07/29 06:36:07;;;;;;;13.20;3.90;;;18.50;33.60;;;;;;5011265;28;20423;-72
2021/07/29 06:38:33;;;;;;;9.65;3.45;;;18.80;32.60;;;;;;5010572;28;20433;-73
2021/07/29 06:40:59;;;;;;;14.07;3.42;;;18.90;32.30;;;;;;5010983;28;20384;-72
2021/07/29 06:43:24;;;;;;;11.63;3.92;;;19.10;32.10;;;;;;5011189;28;20481;-72
2021/07/29 06:45:50;;;;;;;11.15;3.15;;;19.00;31.90;;;;;;5011256;28;20381;-72
2021/07/29 06:48:17;;;;;;;9.20;3.17;;;18.80;31.80;;;;;;5010455;28;20807;-72
2021/07/29 06:50:43;;;;;;;16.08;3.70;;;18.60;31.80;;;;;;5011044;28;20488;-72
2021/07/29 06:53:09;;;;;;;8.90;3.10;;;18.50;32.70;;;;;;5011261;28;20385;-72
2021/07/29 06:55:35;;;;;;;10.45;3.40;;;18.40;32.20;;;;;;5011192;28;20719;-73
2021/07/29 06:58:00;;;;;;;11.43;3.40;;;18.30;32.30;;;;;;5009302;28;20400;-72
2021/07/29 07:00:26;;;;;;;8.60;3.57;;;18.30;32.50;;;;;;5010929;28;20520;-73
2021/07/29 07:02:51;;;;;;;10.23;3.33;;;18.30;32.50;;;;;;4992675;28;20613;-73
2021/07/29 07:05:17;;;;;;;11.35;4.05;;;18.30;32.20;;;;;;5008890;28;20392;-72
2021/07/29 07:07:42;;;;;;;6.50;3.40;;;18.30;33.00;;;;;;4997865;28;20468;-73
2021/07/29 07:10:08;;;;;;;8.73;3.60;;;18.30;32.60;;;;;;5009333;28;20411;-72
2021/07/29 07:12:37;;;;;;;8.80;3.30;;;18.50;32.00;;;;;;5019271;28;20807;-72
2021/07/29 07:15:04;;;;;;;11.68;3.30;;;18.70;31.00;;;;;;5024502;28;20403;-72
2021/07/29 07:17:29;;;;;;;11.68;3.50;;;19.00;30.00;;;;;;5032744;28;20885;-71
2021/07/29 07:20:00;;;;;;;9.20;2.80;;;19.30;27.90;;;;;;5029660;28;20399;-70
2021/07/29 07:22:26;;;;;;;11.52;3.10;;;19.40;27.40;;;;;;5016173;28;20416;-70
2021/07/29 07:24:52;;;;;;;15.23;3.70;;;19.40;28.10;;;;;;5002929;28;20734;-70
2021/07/29 07:27:18;;;;;;;10.77;3.40;;;19.70;28.30;;;;;;5011762;28;20397;-71
2021/07/29 07:29:43;;;;;;;7.05;2.90;;;20.00;25.20;;;;;;5010052;28;20389;-70
2021/07/29 07:32:09;;;;;;;11.60;3.10;;;19.90;26.30;;;;;;5014385;28;20406;-70
2021/07/29 07:34:35;;;;;;;13.02;3.30;;;19.80;26.90;;;;;;5002871;28;20422;-70
2021/07/29 07:37:00;;;;;;;7.78;2.88;;;19.90;26.40;;;;;;5004541;28;20395;-71
2021/07/29 07:39:26;;;;;;;8.50;2.93;;;19.90;26.20;;;;;;5029973;28;20737;-71
2021/07/29 07:41:52;;;;;;;9.33;3.00;;;19.90;25.50;;;;;;5023756;28;20412;-70
2021/07/29 07:44:18;;;;;;;8.90;3.20;;;19.90;25.80;;;;;;4990590;28;20755;-71
2021/07/29 07:46:43;;;;;;;9.27;3.50;;;20.00;25.50;;;;;;4994058;28;20392;-71
2021/07/29 07:49:10;;;;;;;8.57;3.20;;;19.80;25.80;;;;;;5009512;28;20393;-71
2021/07/29 07:51:37;;;;;;;6.27;3.20;;;19.90;26.00;;;;;;5011909;28;20803;-70
2021/07/29 07:54:02;;;;;;;10.75;2.92;;;19.90;26.30;;;;;;5027338;28;20403;-70
2021/07/29 07:56:28;;;;;;;14.00;3.30;;;20.00;25.50;;;;;;5028269;28;20801;-70
2021/07/29 07:58:53;;;;;;;7.27;2.60;;;19.70;23.90;;;;;;5015208;28;20559;-70
2021/07/29 08:01:20;;;;;;;6.75;3.05;;;19.50;24.40;;;;;;5009445;28;20385;-70
2021/07/29 08:03:46;;;;;;;11.75;3.25;;;19.50;25.10;;;;;;5026377;28;20758;-70
2021/07/29 08:06:11;;;;;;;12.98;3.00;;;19.40;25.80;;;;;;5026154;28;20453;-71
2021/07/29 08:08:38;;;;;;;9.83;3.00;;;19.40;25.50;;;;;;5027554;28;20875;-70
2021/07/29 08:11:04;;;;;;;9.07;2.95;;;19.40;25.70;;;;;;5018426;28;20590;-69
2021/07/29 08:13:29;;;;;;;10.82;2.80;;;19.60;25.00;;;;;;5017245;28;20954;-70
2021/07/29 08:15:55;;;;;;;6.80;2.50;;;19.50;25.50;;;;;;5020229;28;20402;-70
2021/07/29 08:18:21;;;;;;;12.07;3.10;;;19.30;25.20;;;;;;5005670;28;20931;-71
2021/07/29 08:20:46;;;;;;;9.52;2.90;;;19.20;26.20;;;;;;5005990;28;20463;-70
2021/07/29 08:23:12;;;;;;;11.77;3.20;;;19.10;25.90;;;;;;4987539;28;20468;-70
2021/07/29 08:25:38;;;;;;;13.00;3.50;;;19.00;26.70;;;;;;4996580;28;20399;-70
2021/07/29 08:28:04;;;;;;;9.50;3.03;;;19.00;26.40;;;;;;5010585;28;20407;-70
2021/07/29 08:30:30;;;;;;;7.88;2.90;;;19.10;25.00;;;;;;4997204;28;20394;-69
2021/07/29 08:32:56;;;;;;;7.07;2.88;;;19.10;25.00;;;;;;5004635;28;21011;-70
2021/07/29 08:35:21;;;;;;;9.32;2.72;;;18.90;25.30;;;;;;4996776;28;20474;-69
2021/07/29 08:37:50;;;;;;;10.20;2.97;;;18.60;26.90;;;;;;4989023;28;20875;-70
2021/07/29 08:40:19;;;;;;;8.77;3.03;;;18.70;27.00;;;;;;5005938;28;20443;-70
2021/07/29 08:42:48;;;;;;;12.37;3.67;;;18.80;27.10;;;;;;5023254;28;20407;-70
2021/07/29 08:45:15;;;;;;;9.17;2.80;;;19.00;27.00;;;;;;5026478;28;20864;-70
2021/07/29 08:47:44;;;;;;;8.75;3.10;;;19.20;26.40;;;;;;5028037;28;20380;-71
2021/07/29 08:50:10;;;;;;;11.95;3.40;;;19.40;26.50;;;;;;5027066;28;20725;-70
2021/07/29 08:52:36;;;;;;;9.48;3.25;;;19.60;25.80;;;;;;5022814;28;20423;-71
2021/07/29 08:55:01;;;;;;;11.13;3.07;;;19.70;25.30;;;;;;5024153;28;20459;-70
2021/07/29 08:57:29;;;;;;;7.00;2.90;;;20.00;24.30;;;;;;5013143;28;20411;-69
2021/07/29 08:59:55;;;;;;;6.38;2.60;;;20.30;22.10;;;;;;4997092;28;20398;-70
2021/07/29 09:02:28;;;;;;;8.47;2.87;;;20.50;21.10;;;;;;5026251;28;20509;-71
2021/07/29 09:05:10;;;;;;;6.72;2.80;;;20.50;21.80;;;;;;5008664;28;20435;-70
2021/07/29 09:07:36;;;;;;;8.18;2.80;;;20.70;20.70;;;;;;5017336;28;20399;-70
2021/07/29 09:10:16;;;;;;;10.13;2.58;;;20.50;21.00;;;;;;4987662;23;20787;-76
2021/07/29 09:12:42;;;;;;;7.60;2.97;;;20.40;21.40;;;;;;4966660;28;20403;-76
2021/07/29 09:15:18;;;;;;;9.57;2.92;;;20.40;21.80;;;;;;4970552;28;20388;-75
2021/07/29 09:17:47;;;;;;;9.00;3.00;;;20.50;20.80;;;;;;4961669;28;20411;-78
2021/07/29 09:20:21;;;;;;;8.00;2.77;;;20.50;20.30;;;;;;4965590;28;20418;-75
2021/07/29 09:22:49;;;;;;;9.43;2.40;;;20.50;20.70;;;;;;4973497;28;20471;-75
2021/07/29 09:25:17;;;;;;;7.85;2.63;;;20.50;20.00;;;;;;4973889;28;20799;-75
2021/07/29 09:27:45;;;;;;;8.70;2.90;;;20.60;20.80;;;;;;4974030;28;20395;-75
2021/07/29 09:30:14;;;;;;;9.48;2.80;;;20.70;20.00;;;;;;4974194;28;20484;-75
2021/07/29 09:32:59;;;;;;;6.90;2.50;;;21.00;19.10;;;;;;4973419;28;20606;-76
2021/07/29 09:35:43;;;;;;;8.20;2.80;;;21.20;18.90;;;;;;4973116;28;20782;-74
2021/07/29 09:38:30;;;;;;;6.50;2.40;;;21.20;18.80;;;;;;4972191;28;20964;-74
2021/07/29 09:41:03;;;;;;;10.05;2.60;;;21.10;18.30;;;;;;4972842;28;20876;-74
2021/07/29 09:43:38;;;;;;;10.07;3.00;;;21.00;18.20;;;;;;4973978;28;20403;-76
2021/07/29 09:46:15;;;;;;;10.57;2.53;;;20.90;18.50;;;;;;4973702;28;20396;-75
2021/07/29 09:48:42;;;;;;;11.23;2.40;;;20.90;19.10;;;;;;4973094;28;20453;-74
2021/07/29 09:51:10;;;;;;;7.60;2.40;;;21.00;18.80;;;;;;4973390;28;20435;-75
2021/07/29 09:53:36;;;;;;;10.43;2.30;;;21.20;18.10;;;;;;4973692;28;20377;-75
2021/07/29 09:56:09;;;;;;;7.80;2.20;;;21.40;18.40;;;;;;4973506;28;20782;-75
2021/07/29 09:58:35;;;;;;;8.05;2.70;;;21.50;17.70;;;;;;4963410;28;20453;-76
2021/07/29 10:01:02;;;;;;;10.95;2.80;;;21.60;17.50;;;;;;4967557;28;20405;-76
2021/07/29 10:03:29;;;;;;;7.93;2.70;;;21.50;17.40;;;;;;4988270;28;20408;-74
2021/07/29 10:06:05;;;;;;;7.15;2.72;;;21.40;17.80;;;;;;4972733;28;20406;-75
2021/07/29 10:08:38;;;;;;;10.68;2.78;;;21.60;18.80;;;;;;4972814;28;20462;-76
2021/07/29 10:11:07;;;;;;;9.55;2.90;;;21.70;17.70;;;;;;4972815;28;20490;-74
2021/07/29 10:13:39;;;;;;;9.70;2.75;;;21.70;17.60;;;;;;4968162;28;20461;-75
2021/07/29 10:16:07;;;;;;;11.70;3.05;;;21.80;17.80;;;;;;4969819;28;20475;-76
2021/07/29 10:18:50;;;;;;;8.80;2.60;;;22.00;17.90;;;;;;4972392;28;20484;-74
2021/07/29 10:21:30;;;;;;;8.90;2.70;;;22.00;17.40;;;;;;4971338;28;20408;-75
2021/07/29 10:24:00;;;;;;;5.53;3.00;;;21.60;17.20;;;;;;4973422;28;20869;-75
2021/07/29 10:26:27;;;;;;;6.95;2.90;;;21.40;18.30;;;;;;4973398;28;20496;-73
2021/07/29 10:28:52;;;;;;;11.87;3.60;;;21.30;18.40;;;;;;4973197;28;20890;-73
2021/07/29 10:31:19;;;;;;;10.57;2.60;;;21.50;18.00;;;;;;4972677;28;20399;-73
2021/07/29 10:33:48;;;;;;;9.40;3.20;;;21.80;17.30;;;;;;4986597;28;20613;-72
2021/07/29 10:36:45;;;;;;;8.90;2.60;;;22.00;16.30;;;;;;4972873;28;20435;-74
2021/07/29 10:39:12;;;;;;;8.05;2.60;;;21.80;15.80;;;;;;4973667;28;20392;-74
2021/07/29 10:41:41;;;;;;;8.60;2.55;;;21.10;17.20;;;;;;4972954;28;20420;-73
2021/07/29 10:44:10;;;;;;;10.68;2.60;;;20.70;18.40;;;;;;4972984;28;20408;-73
2021/07/29 10:47:02;;;;;;;10.10;2.67;;;20.70;18.60;;;;;;4973213;28;20433;-72
2021/07/29 10:49:49;;;;;;;8.60;2.50;;;20.90;18.50;;;;;;4973332;28;20487;-73
2021/07/29 10:52:16;;;;;;;10.57;2.97;;;20.90;18.90;;;;;;4972845;28;20546;-73
2021/07/29 10:54:43;;;;;;;6.65;2.90;;;21.20;18.20;;;;;;4972902;28;20466;-73
2021/07/29 10:57:10;;;;;;;4.83;2.60;;;21.40;18.00;;;;;;4988209;28;20506;-73
2021/07/29 10:59:37;;;;;;;7.32;2.65;;;21.40;16.90;;;;;;4971300;28;20447;-74
2021/07/29 11:02:15;;;;;;;4.93;2.60;;;21.30;17.20;;;;;;4987336;28;20446;-72
2021/07/29 11:04:51;;;;;;;7.97;2.33;;;21.50;16.60;;;;;;4971987;28;20400;-71
2021/07/29 11:07:19;;;;;;;3.38;2.60;;;21.50;16.70;;;;;;4963007;28;20396;-72
2021/07/29 11:09:45;;;;;;;6.38;2.88;;;21.50;17.00;;;;;;4971246;28;20900;-72
2021/07/29 11:12:13;;;;;;;7.18;2.92;;;21.30;17.60;;;;;;4971695;28;20927;-73
2021/07/29 11:14:39;;;;;;;9.82;3.35;;;21.30;17.30;;;;;;4971339;28;20385;-75
2021/07/29 11:17:06;;;;;;;7.15;2.80;;;21.40;17.30;;;;;;4970770;28;20403;-76
2021/07/29 11:19:45;;;;;;;7.43;3.10;;;21.40;17.50;;;;;;4971526;28;20424;-76
2021/07/29 11:22:11;;;;;;;7.70;2.42;;;21.50;17.30;;;;;;4971907;28;20420;-76
2021/07/29 11:24:37;;;;;;;9.95;3.03;;;21.40;17.70;;;;;;4972186;28;20412;-76
2021/07/29 11:27:06;;;;;;;6.85;2.97;;;21.40;16.60;;;;;;4971613;28;20388;-76
2021/07/29 11:29:35;;;;;;;6.90;2.95;;;21.40;16.30;;;;;;4987300;28;20535;-74
2021/07/29 11:32:01;;;;;;;11.70;3.25;;;21.50;14.90;;;;;;4971377;28;20405;-75
2021/07/29 11:34:34;;;;;;;5.93;2.80;;;21.50;15.60;;;;;;4963659;28;20785;-75
2021/07/29 11:37:01;;;;;;;12.20;3.27;;;21.40;16.00;;;;;;4972435;28;20396;-75
2021/07/29 11:39:36;;;;;;;8.63;2.90;;;21.50;14.40;;;;;;4971257;28;20496;-75
2021/07/29 11:42:02;;;;;;;9.75;3.00;;;21.70;14.80;;;;;;4985849;28;20415;-74
2021/07/29 11:44:45;;;;;;;7.70;3.05;;;21.90;15.00;;;;;;4970740;28;20893;-74
2021/07/29 11:47:11;;;;;;;5.13;2.60;;;21.90;13.20;;;;;;4972097;28;20439;-74
2021/07/29 11:49:48;;;;;;;6.05;2.60;;;21.70;13.50;;;;;;4971423;28;20395;-74
2021/07/29 11:52:15;;;;;;;9.23;2.80;;;21.70;14.00;;;;;;4970888;28;20474;-74
2021/07/29 11:54:41;;;;;;;5.25;2.80;;;21.50;14.50;;;;;;4973751;28;20400;-75
2021/07/29 11:57:07;;;;;;;5.28;2.28;;;21.40;14.00;;;;;;4972392;28;20396;-74
2021/07/29 11:59:37;;;;;;;5.38;2.50;;;21.60;13.30;;;;;;4972524;28;20467;-74
2021/07/29 12:02:04;;;;;;;6.40;2.80;;;21.70;11.90;;;;;;4972202;28;20416;-73
2021/07/29 12:04:41;;;;;;;5.30;2.50;;;21.60;11.70;;;;;;4972473;28;20542;-75
2021/07/29 12:07:09;;;;;;;6.55;2.60;;;21.60;13.10;;;;;;4952778;28;20386;-74
2021/07/29 12:09:39;;;;;;;8.27;2.47;;;21.80;13.20;;;;;;4951089;28;20420;-74
2021/07/29 12:12:05;;;;;;;8.35;2.80;;;22.10;13.40;;;;;;4971499;28;20741;-74
2021/07/29 12:14:31;;;;;;;10.48;2.88;;;22.50;13.90;;;;;;4969767;28;20410;-75
2021/07/29 12:16:57;;;;;;;7.25;3.08;;;22.70;12.70;;;;;;4971069;28;20485;-75
2021/07/29 12:19:23;;;;;;;11.90;3.00;;;22.80;12.00;;;;;;4970314;28;20415;-74
2021/07/29 12:21:50;;;;;;;5.32;2.65;;;22.70;12.60;;;;;;4985348;28;20415;-74
2021/07/29 12:24:17;;;;;;;8.50;2.63;;;22.40;10.50;;;;;;4985693;28;20389;-73
2021/07/29 12:27:06;;;;;;;8.10;2.50;;;22.20;11.00;;;;;;4969927;28;20924;-74
2021/07/29 12:29:40;;;;;;;8.90;2.90;;;22.20;11.90;;;;;;4970624;28;20380;-74
2021/07/29 12:32:20;;;;;;;6.47;2.53;;;22.10;12.50;;;;;;4969339;28;20400;-74
2021/07/29 12:34:46;;;;;;;6.95;3.33;;;22.40;11.50;;;;;;4971024;28;20400;-72
2021/07/29 12:37:12;;;;;;;9.38;2.70;;;22.40;13.00;;;;;;4970379;28;20479;-73
2021/07/29 12:39:40;;;;;;;11.23;2.90;;;22.60;12.80;;;;;;4969845;28;20880;-74
2021/07/29 12:42:40;;;;;;;10.20;2.60;;;22.70;11.50;;;;;;4971418;28;20905;-75
2021/07/29 12:45:08;;;;;;;10.20;2.80;;;22.90;11.80;;;;;;4910080;29;20466;-75
2021/07/29 12:47:34;;;;;;;11.35;3.30;;;23.20;12.50;;;;;;4956608;28;20467;-75